createdAt,value
2019-03-11T00:00:59.747Z,4.90
2019-03-11T00:02:09.066Z,7.20
2019-03-11T00:03:17.238Z,0.87
2019-03-11T00:04:26.096Z,1.83
2019-03-11T00:05:34.804Z,1.30
2019-03-11T00:06:43.018Z,1.60
2019-03-11T00:07:51.138Z,1.80
2019-03-11T00:08:59.284Z,4.97
2019-03-11T00:10:09.451Z,5.97
2019-03-11T00:11:17.541Z,1.60
2019-03-11T00:12:25.456Z,1.27
2019-03-11T00:13:33.486Z,1.53
2019-03-11T00:14:41.174Z,1.57
2019-03-11T00:15:49.128Z,1.40
2019-03-11T00:16:57.203Z,2.43
2019-03-11T00:18:05.389Z,5.87
2019-03-11T00:19:13.309Z,5.90
2019-03-11T00:20:21.510Z,1.63
2019-03-11T00:21:29.405Z,1.13
2019-03-11T00:22:37.217Z,2.33
2019-03-11T00:23:45.031Z,2.30
2019-03-11T00:24:52.985Z,1.47
2019-03-11T00:26:00.959Z,5.23
2019-03-11T00:27:09.327Z,6.40
2019-03-11T00:28:17.260Z,1.70
2019-03-11T00:29:25.429Z,1.50
2019-03-11T00:30:33.264Z,2.03
2019-03-11T00:31:41.094Z,1.37
2019-03-11T00:32:49.138Z,1.43
2019-03-11T00:33:58.376Z,1.33
2019-03-11T00:35:07.740Z,5.90
2019-03-11T00:36:15.533Z,4.50
2019-03-11T00:37:23.444Z,1.17
2019-03-11T00:38:31.100Z,2.30
2019-03-11T00:39:39.078Z,1.73
2019-03-11T00:40:47.331Z,1.30
2019-03-11T00:41:55.116Z,1.50
2019-03-11T00:43:02.908Z,6.63
2019-03-11T00:44:10.921Z,6.30
2019-03-11T00:45:18.895Z,1.20
2019-03-11T00:46:26.807Z,1.37
2019-03-11T00:47:34.544Z,1.30
2019-03-11T00:48:42.264Z,1.90
2019-03-11T00:49:50.354Z,1.00
2019-03-11T00:50:58.254Z,2.43
2019-03-11T00:52:06.456Z,7.90
2019-03-11T00:53:14.323Z,7.70
2019-03-11T00:54:22.125Z,1.57
2019-03-11T00:55:30.040Z,1.80
2019-03-11T00:56:37.722Z,2.33
2019-03-11T00:57:45.572Z,2.03
2019-03-11T00:58:53.378Z,2.13
2019-03-11T01:00:01.173Z,5.93
2019-03-11T01:01:09.148Z,8.73
2019-03-11T01:02:17.084Z,6.60
2019-03-11T01:03:25.159Z,1.20
2019-03-11T01:04:33.000Z,1.37
2019-03-11T01:05:40.777Z,2.00
2019-03-11T01:06:48.631Z,1.70
2019-03-11T01:07:56.460Z,1.20
2019-03-11T01:09:05.826Z,9.47
2019-03-11T01:10:13.910Z,9.00
2019-03-11T01:11:21.703Z,1.40
2019-03-11T01:12:29.556Z,0.80
2019-03-11T01:13:37.394Z,1.53
2019-03-11T01:14:45.053Z,1.63
2019-03-11T01:15:52.792Z,2.43
2019-03-11T01:17:00.747Z,3.77
2019-03-11T01:18:08.831Z,10.53
2019-03-11T01:19:16.621Z,20.93
2019-03-11T01:20:24.547Z,9.03
2019-03-11T01:21:32.369Z,1.50
2019-03-11T01:22:40.232Z,29.37
2019-03-11T01:23:48.123Z,70.37
2019-03-11T01:24:55.900Z,85.63
2019-03-11T01:26:04.413Z,115.90
2019-03-11T01:27:12.295Z,123.57
2019-03-11T01:28:20.409Z,96.63
2019-03-11T01:29:28.426Z,2.00
2019-03-11T01:30:36.664Z,1.93
2019-03-11T01:31:45.491Z,1.27
2019-03-11T01:32:54.070Z,1.70
2019-03-11T01:34:02.474Z,4.10
2019-03-11T01:35:11.227Z,65.33
2019-03-11T01:36:19.617Z,76.27
2019-03-11T01:37:27.705Z,80.90
2019-03-11T01:38:35.745Z,47.13
2019-03-11T01:39:46.202Z,9.80
2019-03-11T01:40:54.361Z,2.93
2019-03-11T01:42:02.420Z,5.13
2019-03-11T01:43:10.231Z,11.47
2019-03-11T01:44:18.091Z,9.03
2019-03-11T01:45:25.837Z,1.20
2019-03-11T01:46:33.595Z,1.70
2019-03-11T01:47:41.620Z,1.27
2019-03-11T01:48:49.561Z,2.70
2019-03-11T01:49:57.491Z,1.50
2019-03-11T01:51:05.851Z,8.80
2019-03-11T01:52:13.568Z,11.30
2019-03-11T01:53:21.419Z,4.17
2019-03-11T01:54:29.561Z,7.10
2019-03-11T01:55:37.501Z,15.57
2019-03-11T01:56:45.421Z,45.20
2019-03-11T01:57:54.790Z,28.97
2019-03-11T01:59:02.879Z,4.73
2019-03-11T02:00:14.883Z,10.50
2019-03-11T02:01:22.919Z,2.40
2019-03-11T02:02:30.775Z,1.30
2019-03-11T02:03:38.525Z,1.00
2019-03-11T02:04:46.558Z,1.70
2019-03-11T02:05:54.418Z,1.27
2019-03-11T02:07:02.734Z,3.67
2019-03-11T02:08:10.980Z,47.67
2019-03-11T02:09:19.736Z,98.83
2019-03-11T02:10:28.048Z,68.50
2019-03-11T02:11:35.930Z,83.43
2019-03-11T02:12:44.018Z,122.37
2019-03-11T02:13:52.323Z,24.40
2019-03-11T02:15:00.518Z,70.50
2019-03-11T02:16:08.430Z,71.67
2019-03-11T02:17:16.114Z,69.10
2019-03-11T02:18:24.407Z,140.53
2019-03-11T02:19:32.502Z,103.77
2019-03-11T02:20:40.596Z,94.40
2019-03-11T02:21:48.492Z,95.47
2019-03-11T02:22:56.290Z,114.50
2019-03-11T02:24:04.161Z,98.70
2019-03-11T02:25:12.543Z,84.80
2019-03-11T02:26:20.477Z,21.80
2019-03-11T02:27:28.516Z,3.37
2019-03-11T02:28:36.254Z,2.23
2019-03-11T02:29:44.396Z,2.60
2019-03-11T02:30:52.557Z,2.20
2019-03-11T02:32:00.623Z,1.90
2019-03-11T02:33:08.643Z,10.37
2019-03-11T02:34:16.766Z,11.77
2019-03-11T02:35:30.547Z,5.40
2019-03-11T02:36:38.430Z,1.83
2019-03-11T02:37:46.526Z,1.63
2019-03-11T02:38:54.410Z,2.63
2019-03-11T02:40:02.738Z,2.17
2019-03-11T02:41:10.640Z,9.80
2019-03-11T02:42:18.508Z,10.73
2019-03-11T02:43:26.300Z,1.63
2019-03-11T02:44:34.565Z,2.53
2019-03-11T02:45:42.755Z,1.87
2019-03-11T02:46:50.808Z,2.47
2019-03-11T02:47:59.008Z,1.97
2019-03-11T02:49:06.883Z,5.23
2019-03-11T02:50:15.072Z,10.37
2019-03-11T02:51:22.819Z,6.93
2019-03-11T02:52:30.877Z,2.30
2019-03-11T02:53:38.896Z,1.53
2019-03-11T02:54:46.969Z,2.30
2019-03-11T02:55:54.750Z,1.60
2019-03-11T02:57:02.856Z,1.53
2019-03-11T02:58:10.600Z,9.17
2019-03-11T02:59:18.469Z,9.20
2019-03-11T03:00:26.766Z,1.83
2019-03-11T03:01:52.663Z,2.00
2019-03-11T03:03:18.301Z,2.37
2019-03-11T03:04:39.881Z,2.20
2019-03-11T03:05:49.633Z,1.30
2019-03-11T03:06:57.634Z,1.33
2019-03-11T03:08:06.016Z,1.70
2019-03-11T03:09:15.691Z,8.40
2019-03-11T03:10:23.789Z,6.97
2019-03-11T03:11:31.870Z,1.40
2019-03-11T03:12:39.676Z,1.73
2019-03-11T03:13:47.393Z,1.80
2019-03-11T03:14:55.669Z,1.63
2019-03-11T03:16:03.751Z,1.27
2019-03-11T03:17:11.811Z,8.67
2019-03-11T03:18:19.691Z,8.83
2019-03-11T03:19:27.660Z,1.63
2019-03-11T03:20:35.859Z,1.57
2019-03-11T03:21:43.994Z,1.13
2019-03-11T03:22:51.879Z,1.93
2019-03-11T03:23:59.921Z,1.30
2019-03-11T03:25:12.033Z,2.90
2019-03-11T03:26:20.294Z,8.53
2019-03-11T03:27:28.493Z,2.00
2019-03-11T03:28:36.698Z,1.83
2019-03-11T03:29:44.658Z,1.60
2019-03-11T03:30:52.774Z,2.63
2019-03-11T03:32:00.782Z,2.03
2019-03-11T03:33:08.736Z,3.37
2019-03-11T03:34:17.242Z,9.33
2019-03-11T03:35:25.067Z,10.70
2019-03-11T03:36:32.925Z,1.80
2019-03-11T03:37:40.814Z,1.73
2019-03-11T03:38:48.744Z,1.87
2019-03-11T03:39:56.609Z,1.30
2019-03-11T03:41:04.670Z,1.97
2019-03-11T03:42:13.568Z,7.63
2019-03-11T03:43:22.066Z,9.37
2019-03-11T03:44:30.117Z,2.43
2019-03-11T03:45:41.354Z,2.07
2019-03-11T03:46:49.513Z,1.97
2019-03-11T03:47:57.882Z,2.47
2019-03-11T03:49:06.202Z,2.00
2019-03-11T03:50:14.712Z,9.30
2019-03-11T03:51:22.701Z,9.60
2019-03-11T03:52:30.553Z,1.83
2019-03-11T03:53:38.323Z,1.97
2019-03-11T03:54:46.277Z,2.27
2019-03-11T03:55:54.270Z,1.30
2019-03-11T03:57:02.471Z,1.70
2019-03-11T03:58:10.235Z,3.23
2019-03-11T03:59:18.045Z,8.03
2019-03-11T04:00:26.579Z,8.10
2019-03-11T04:01:34.463Z,2.13
2019-03-11T04:02:42.421Z,2.57
2019-03-11T04:03:50.453Z,1.70
2019-03-11T04:04:58.621Z,1.67
2019-03-11T04:06:06.542Z,1.50
2019-03-11T04:07:14.408Z,9.40
2019-03-11T04:08:22.408Z,10.13
2019-03-11T04:09:30.325Z,3.53
2019-03-11T04:10:38.420Z,3.13
2019-03-11T04:11:46.406Z,2.60
2019-03-11T04:12:54.702Z,1.97
2019-03-11T04:14:02.847Z,2.57
2019-03-11T04:15:11.997Z,3.87
2019-03-11T04:16:20.359Z,9.80
2019-03-11T04:17:28.747Z,7.13
2019-03-11T04:18:54.274Z,3.87
2019-03-11T04:20:02.438Z,1.93
2019-03-11T04:21:10.430Z,2.13
2019-03-11T04:22:18.494Z,10.60
2019-03-11T04:23:26.726Z,11.07
2019-03-11T04:24:34.710Z,1.70
2019-03-11T04:25:42.670Z,1.90
2019-03-11T04:26:54.412Z,2.70
2019-03-11T04:28:02.597Z,5.43
2019-03-11T04:29:10.789Z,4.57
2019-03-11T04:30:23.186Z,10.83
2019-03-11T04:31:31.091Z,3.60
2019-03-11T04:32:38.870Z,2.73
2019-03-11T04:33:47.226Z,2.00
2019-03-11T04:34:55.177Z,2.00
2019-03-11T04:36:03.389Z,1.77
2019-03-11T04:37:11.204Z,3.37
2019-03-11T04:38:19.283Z,10.77
2019-03-11T04:39:27.298Z,10.63
2019-03-11T04:40:35.171Z,2.70
2019-03-11T04:41:43.143Z,2.97
2019-03-11T04:42:51.578Z,2.30
2019-03-11T04:43:59.539Z,2.93
2019-03-11T04:45:11.477Z,50.80
2019-03-11T04:46:19.795Z,18.13
2019-03-11T04:47:27.745Z,12.07
2019-03-11T04:48:35.979Z,3.27
2019-03-11T04:49:44.000Z,7.30
2019-03-11T04:50:51.924Z,4.33
2019-03-11T04:52:00.060Z,3.13
2019-03-11T04:53:07.930Z,2.83
2019-03-11T04:54:15.722Z,7.57
2019-03-11T04:55:23.630Z,8.57
2019-03-11T04:56:31.569Z,6.57
2019-03-11T04:57:53.954Z,1.97
2019-03-11T04:59:13.332Z,1.63
2019-03-11T05:00:25.379Z,9.47
2019-03-11T05:01:33.252Z,3.10
2019-03-11T05:02:41.345Z,2.93
2019-03-11T05:03:49.696Z,2.47
2019-03-11T05:04:57.661Z,3.60
2019-03-11T05:06:05.607Z,2.10
2019-03-11T05:07:14.266Z,2.33
2019-03-11T05:08:22.324Z,7.60
2019-03-11T05:09:30.569Z,7.43
2019-03-11T05:10:38.682Z,3.23
2019-03-11T05:11:46.574Z,3.20
2019-03-11T05:12:54.763Z,2.20
2019-03-11T05:14:03.222Z,3.87
2019-03-11T05:15:13.937Z,2.27
2019-03-11T05:16:22.147Z,8.57
2019-03-11T05:17:30.349Z,8.37
2019-03-11T05:18:38.511Z,1.63
2019-03-11T05:19:46.485Z,1.73
2019-03-11T05:20:55.020Z,1.40
2019-03-11T05:22:03.429Z,2.23
2019-03-11T05:23:11.529Z,2.97
2019-03-11T05:24:19.611Z,8.27
2019-03-11T05:25:28.020Z,7.53
2019-03-11T05:26:36.124Z,1.50
2019-03-11T05:27:44.726Z,1.93
2019-03-11T05:28:53.218Z,1.60
2019-03-11T05:30:01.651Z,1.40
2019-03-11T05:31:09.790Z,5.80
2019-03-11T05:32:17.752Z,7.70
2019-03-11T05:33:25.580Z,10.00
2019-03-11T05:34:33.829Z,6.13
2019-03-11T05:35:42.128Z,5.33
2019-03-11T05:36:50.131Z,2.47
2019-03-11T05:37:58.154Z,2.57
2019-03-11T05:39:08.066Z,2.10
2019-03-11T05:40:21.113Z,2.73
2019-03-11T05:41:29.198Z,9.50
2019-03-11T05:42:36.988Z,2.50
2019-03-11T05:43:44.936Z,2.03
2019-03-11T05:44:53.219Z,2.23
2019-03-11T05:46:01.061Z,2.60
2019-03-11T05:47:08.834Z,2.37
2019-03-11T05:48:16.810Z,3.47
2019-03-11T05:49:24.828Z,9.47
2019-03-11T05:50:33.225Z,9.50
2019-03-11T05:51:41.329Z,1.90
2019-03-11T05:52:49.197Z,2.00
2019-03-11T05:53:57.223Z,2.33
2019-03-11T05:55:06.017Z,2.30
2019-03-11T05:56:13.875Z,2.57
2019-03-11T05:57:22.231Z,11.27
2019-03-11T05:58:30.043Z,14.70
2019-03-11T05:59:38.303Z,2.90
2019-03-11T06:00:46.265Z,2.30
2019-03-11T06:01:54.195Z,3.37
2019-03-11T06:03:02.374Z,2.73
2019-03-11T06:04:10.389Z,2.10
2019-03-11T06:05:18.582Z,6.50
2019-03-11T06:06:26.651Z,10.67
2019-03-11T06:07:34.761Z,8.73
2019-03-11T06:08:42.826Z,3.57
2019-03-11T06:09:51.071Z,3.00
2019-03-11T06:10:59.012Z,3.77
2019-03-11T06:12:07.045Z,2.60
2019-03-11T06:13:15.178Z,2.83
2019-03-11T06:14:23.155Z,8.80
2019-03-11T06:15:31.124Z,8.00
2019-03-11T06:16:39.391Z,2.57
2019-03-11T06:17:47.398Z,2.03
2019-03-11T06:18:55.406Z,2.37
2019-03-11T06:20:11.276Z,2.43
2019-03-11T06:21:21.159Z,3.60
2019-03-11T06:22:29.669Z,8.07
2019-03-11T06:23:37.673Z,4.93
2019-03-11T06:24:45.446Z,2.63
2019-03-11T06:25:53.370Z,3.10
2019-03-11T06:27:01.826Z,2.10
2019-03-11T06:28:10.125Z,2.53
2019-03-11T06:29:18.339Z,2.83
2019-03-11T06:30:26.665Z,8.50
2019-03-11T06:31:34.945Z,9.43
2019-03-11T06:32:42.960Z,2.20
2019-03-11T06:33:51.053Z,4.40
2019-03-11T06:34:59.150Z,1.43
2019-03-11T06:36:07.198Z,1.77
2019-03-11T06:37:15.378Z,1.80
2019-03-11T06:38:23.613Z,5.90
2019-03-11T06:39:31.722Z,5.80
2019-03-11T06:40:39.821Z,2.27
2019-03-11T06:41:47.814Z,1.70
2019-03-11T06:42:55.816Z,1.40
2019-03-11T06:44:03.825Z,2.77
2019-03-11T06:45:14.127Z,2.07
2019-03-11T06:46:22.147Z,5.40
2019-03-11T06:47:30.445Z,6.00
2019-03-11T06:48:38.596Z,2.80
2019-03-11T06:49:46.798Z,1.93
2019-03-11T06:50:54.998Z,2.03
2019-03-11T06:52:03.770Z,1.30
2019-03-11T06:53:12.246Z,2.17
2019-03-11T06:54:20.868Z,2.80
2019-03-11T06:55:29.016Z,5.47
2019-03-11T06:56:37.077Z,5.47
2019-03-11T06:57:44.990Z,2.67
2019-03-11T06:58:53.027Z,1.90
2019-03-11T07:00:01.084Z,1.73
2019-03-11T07:01:09.027Z,2.20
2019-03-11T07:02:16.955Z,1.67
2019-03-11T07:03:25.133Z,5.30
2019-03-11T07:04:33.219Z,7.23
2019-03-11T07:05:41.237Z,2.23
2019-03-11T07:06:49.326Z,1.40
2019-03-11T07:07:57.409Z,1.70
2019-03-11T07:09:07.927Z,1.73
2019-03-11T07:10:17.482Z,2.60
2019-03-11T07:11:25.688Z,9.00
2019-03-11T07:12:34.016Z,7.67
2019-03-11T07:13:42.398Z,1.43
2019-03-11T07:14:50.598Z,1.83
2019-03-11T07:15:58.539Z,1.63
2019-03-11T07:17:06.444Z,4.23
2019-03-11T07:18:14.117Z,2.40
2019-03-11T07:19:22.087Z,2.93
2019-03-11T07:20:30.309Z,6.50
2019-03-11T07:21:38.461Z,8.90
2019-03-11T07:22:46.562Z,1.60
2019-03-11T07:23:54.661Z,2.87
2019-03-11T07:25:02.704Z,1.47
2019-03-11T07:26:10.606Z,1.70
2019-03-11T07:27:18.673Z,1.80
2019-03-11T07:28:26.644Z,6.23
2019-03-11T07:29:34.352Z,7.80
2019-03-11T07:30:42.450Z,1.90
2019-03-11T07:31:50.620Z,1.77
2019-03-11T07:32:58.624Z,1.63
2019-03-11T07:34:06.593Z,1.33
2019-03-11T07:35:14.693Z,2.93
2019-03-11T07:36:22.839Z,5.20
2019-03-11T07:37:30.923Z,8.50
2019-03-11T07:38:39.031Z,11.60
2019-03-11T07:39:46.970Z,2.07
2019-03-11T07:40:55.027Z,3.17
2019-03-11T07:42:03.278Z,1.90
2019-03-11T07:43:11.432Z,1.87
2019-03-11T07:44:19.628Z,2.30
2019-03-11T07:45:27.571Z,7.40
2019-03-11T07:46:35.534Z,8.90
2019-03-11T07:47:43.869Z,4.13
2019-03-11T07:48:51.783Z,2.83
2019-03-11T07:49:59.543Z,2.90
2019-03-11T07:51:07.669Z,66.03
2019-03-11T07:52:15.981Z,10.07
2019-03-11T07:53:24.789Z,93.73
2019-03-11T07:54:36.044Z,20.20
2019-03-11T07:55:42.819Z,7.03
2019-03-11T07:56:50.969Z,3.23
2019-03-11T07:57:59.341Z,3.57
2019-03-11T07:59:07.320Z,2.00
2019-03-11T08:00:21.042Z,5.40
2019-03-11T08:01:29.111Z,9.97
2019-03-11T08:02:37.032Z,10.63
2019-03-11T08:03:45.010Z,2.70
2019-03-11T08:04:53.224Z,1.80
2019-03-11T08:06:01.220Z,2.70
2019-03-11T08:07:09.043Z,1.97
2019-03-11T08:08:17.017Z,2.33
2019-03-11T08:09:36.934Z,3.97
2019-03-11T08:10:34.862Z,10.03
2019-03-11T08:11:42.919Z,8.87
2019-03-11T08:12:50.801Z,2.23
2019-03-11T08:13:58.936Z,4.70
2019-03-11T08:15:11.096Z,3.67
2019-03-11T08:16:19.228Z,1.80
2019-03-11T08:17:27.517Z,5.20
2019-03-11T08:18:35.838Z,12.27
2019-03-11T08:19:43.884Z,9.70
2019-03-11T08:20:51.680Z,2.70
2019-03-11T08:21:59.861Z,1.67
2019-03-11T08:23:07.783Z,2.70
2019-03-11T08:24:16.691Z,2.70
2019-03-11T08:25:24.813Z,3.63
2019-03-11T08:26:32.729Z,11.63
2019-03-11T08:27:40.905Z,12.87
2019-03-11T08:28:49.102Z,2.97
2019-03-11T08:29:59.416Z,3.97
2019-03-11T08:31:06.827Z,3.23
2019-03-11T08:32:14.744Z,4.87
2019-03-11T08:33:22.793Z,4.23
2019-03-11T08:34:30.614Z,19.77
2019-03-11T08:35:39.121Z,61.47
2019-03-11T08:36:47.079Z,40.37
2019-03-11T08:37:55.110Z,3.33
2019-03-11T08:39:02.990Z,3.30
2019-03-11T08:40:13.958Z,2.87
2019-03-11T08:41:22.087Z,2.87
2019-03-11T08:42:30.063Z,83.83
2019-03-11T08:43:38.554Z,81.87
2019-03-11T08:44:46.484Z,44.27
2019-03-11T08:45:54.651Z,22.93
2019-03-11T08:47:02.647Z,75.17
2019-03-11T08:48:10.735Z,51.43
2019-03-11T08:49:18.801Z,68.83
2019-03-11T08:50:26.785Z,128.03
2019-03-11T08:51:34.598Z,51.97
2019-03-11T08:52:42.665Z,70.00
2019-03-11T08:53:51.020Z,44.23
2019-03-11T08:54:59.013Z,6.10
2019-03-11T08:56:06.776Z,3.57
2019-03-11T08:57:14.750Z,3.33
2019-03-11T08:58:22.557Z,3.20
2019-03-11T08:59:30.451Z,8.73
2019-03-11T09:00:38.860Z,11.90
2019-03-11T09:01:46.591Z,7.67
2019-03-11T09:02:54.375Z,2.60
2019-03-11T09:04:02.455Z,3.93
2019-03-11T09:05:14.284Z,3.33
2019-03-11T09:06:22.519Z,2.23
2019-03-11T09:07:30.407Z,6.67
2019-03-11T09:08:38.302Z,11.30
2019-03-11T09:09:46.470Z,10.13
2019-03-11T09:10:54.430Z,6.20
2019-03-11T09:12:02.622Z,3.90
2019-03-11T09:13:10.612Z,2.57
2019-03-11T09:14:18.502Z,2.63
2019-03-11T09:15:26.392Z,2.27
2019-03-11T09:16:34.268Z,11.17
2019-03-11T09:17:42.813Z,21.83
2019-03-11T09:18:50.755Z,1.67
2019-03-11T09:19:58.519Z,2.70
2019-03-11T09:21:06.767Z,3.50
2019-03-11T09:22:14.641Z,3.23
2019-03-11T09:23:22.778Z,1.87
2019-03-11T09:24:30.955Z,4.13
2019-03-11T09:25:39.459Z,9.83
2019-03-11T09:26:47.348Z,9.07
2019-03-11T09:27:55.445Z,3.23
2019-03-11T09:29:04.047Z,5.17
2019-03-11T09:30:21.277Z,1.67
2019-03-11T09:31:29.257Z,1.93
2019-03-11T09:32:37.266Z,12.67
2019-03-11T09:33:45.335Z,9.67
2019-03-11T09:34:53.349Z,2.33
2019-03-11T09:36:01.277Z,2.30
2019-03-11T09:37:09.220Z,1.70
2019-03-11T09:38:17.435Z,1.80
2019-03-11T09:39:25.454Z,2.70
2019-03-11T09:40:33.451Z,8.37
2019-03-11T09:41:42.031Z,10.50
2019-03-11T09:42:50.247Z,4.70
2019-03-11T09:43:58.257Z,2.93
2019-03-11T09:45:10.583Z,2.60
2019-03-11T09:46:18.572Z,1.30
2019-03-11T09:47:26.641Z,2.40
2019-03-11T09:48:34.645Z,6.73
2019-03-11T09:49:42.781Z,6.80
2019-03-11T09:50:50.818Z,3.67
2019-03-11T09:51:58.797Z,2.20
2019-03-11T09:53:07.103Z,2.07
2019-03-11T09:54:15.124Z,3.50
2019-03-11T09:55:29.143Z,2.10
2019-03-11T09:56:43.107Z,6.17
2019-03-11T09:57:46.591Z,6.87
2019-03-11T09:58:54.552Z,3.93
2019-03-11T10:00:03.166Z,4.50
2019-03-11T10:01:11.116Z,3.50
2019-03-11T10:02:19.105Z,2.70
2019-03-11T10:03:27.169Z,2.63
2019-03-11T10:04:35.022Z,4.07
2019-03-11T10:05:42.953Z,7.73
2019-03-11T10:06:50.924Z,6.53
2019-03-11T10:07:59.341Z,2.80
2019-03-11T10:09:08.327Z,3.40
2019-03-11T10:10:21.560Z,2.37
2019-03-11T10:11:29.450Z,2.20
2019-03-11T10:12:37.441Z,7.67
2019-03-11T10:13:45.738Z,8.57
2019-03-11T10:14:53.540Z,3.37
2019-03-11T10:16:01.409Z,1.50
2019-03-11T10:17:09.698Z,1.63
2019-03-11T10:18:17.669Z,2.50
2019-03-11T10:19:25.448Z,2.83
2019-03-11T10:20:33.397Z,2.20
2019-03-11T10:21:41.807Z,6.20
2019-03-11T10:22:50.175Z,6.40
2019-03-11T10:23:59.335Z,1.63
2019-03-11T10:25:10.235Z,1.93
2019-03-11T10:26:18.297Z,1.53
2019-03-11T10:27:26.233Z,1.80
2019-03-11T10:28:34.376Z,1.90
2019-03-11T10:29:42.372Z,5.40
2019-03-11T10:30:50.376Z,3.97
2019-03-11T10:31:58.364Z,1.67
2019-03-11T10:33:06.300Z,1.93
2019-03-11T10:34:14.389Z,2.57
2019-03-11T10:35:37.867Z,4.13
2019-03-11T10:36:32.519Z,5.30
2019-03-11T10:37:40.560Z,10.37
2019-03-11T10:38:48.551Z,9.73
2019-03-11T10:39:56.470Z,3.03
2019-03-11T10:41:04.500Z,3.67
2019-03-11T10:42:12.371Z,2.20
2019-03-11T10:43:20.326Z,1.60
2019-03-11T10:44:28.392Z,1.53
2019-03-11T10:45:36.331Z,4.47
2019-03-11T10:46:45.172Z,5.83
2019-03-11T10:47:53.284Z,3.37
2019-03-11T10:49:01.551Z,2.13
2019-03-11T10:50:13.409Z,2.63
2019-03-11T10:51:21.464Z,3.33
2019-03-11T10:52:29.400Z,2.20
2019-03-11T10:53:37.461Z,5.87
2019-03-11T10:54:45.665Z,6.03
2019-03-11T10:55:53.792Z,2.70
2019-03-11T10:57:01.958Z,1.20
2019-03-11T10:58:09.838Z,1.83
2019-03-11T10:59:18.035Z,1.43
2019-03-11T11:00:37.359Z,2.67
2019-03-11T11:01:45.800Z,5.20
2019-03-11T11:02:53.939Z,3.00
2019-03-11T11:04:02.211Z,1.77
2019-03-11T11:05:11.054Z,1.30
2019-03-11T11:06:19.109Z,2.00
2019-03-11T11:07:27.234Z,2.00
2019-03-11T11:08:35.412Z,2.67
2019-03-11T11:09:43.528Z,5.83
2019-03-11T11:10:51.499Z,5.43
2019-03-11T11:11:59.494Z,1.93
2019-03-11T11:13:07.910Z,1.53
2019-03-11T11:14:15.968Z,1.70
2019-03-11T11:15:32.283Z,1.57
2019-03-11T11:16:40.729Z,5.53
2019-03-11T11:17:48.812Z,6.07
2019-03-11T11:18:56.985Z,1.13
2019-03-11T11:20:07.901Z,1.73
2019-03-11T11:21:15.677Z,2.10
2019-03-11T11:22:23.832Z,1.67
2019-03-11T11:23:31.964Z,1.57
2019-03-11T11:24:40.077Z,5.83
2019-03-11T11:25:48.225Z,6.83
2019-03-11T11:26:56.528Z,0.67
2019-03-11T11:28:05.226Z,1.83
2019-03-11T11:29:13.488Z,1.40
2019-03-11T11:30:25.955Z,1.53
2019-03-11T11:31:34.241Z,1.10
2019-03-11T11:32:42.448Z,8.37
2019-03-11T11:33:50.649Z,5.63
2019-03-11T11:34:58.728Z,1.63
2019-03-11T11:36:07.087Z,1.07
2019-03-11T11:37:14.906Z,0.90
2019-03-11T11:38:23.079Z,1.63
2019-03-11T11:39:31.142Z,1.70
2019-03-11T11:40:39.544Z,8.30
2019-03-11T11:41:47.772Z,9.30
2019-03-11T11:42:55.821Z,5.60
2019-03-11T11:44:03.860Z,0.87
2019-03-11T11:45:19.105Z,3.80
2019-03-11T11:46:27.220Z,3.40
2019-03-11T11:47:35.372Z,1.13
2019-03-11T11:48:43.457Z,7.63
2019-03-11T11:49:51.579Z,7.50
2019-03-11T11:50:59.872Z,1.27
2019-03-11T11:52:08.163Z,1.10
2019-03-11T11:53:16.572Z,1.37
2019-03-11T11:54:24.868Z,1.17
2019-03-11T11:55:33.058Z,1.73
2019-03-11T11:56:41.066Z,4.43
2019-03-11T11:57:49.384Z,4.43
2019-03-11T11:58:57.462Z,1.47
2019-03-11T12:00:12.157Z,1.97
2019-03-11T12:01:20.011Z,3.33
2019-03-11T12:02:28.422Z,3.20
2019-03-11T12:03:36.430Z,1.57
2019-03-11T12:04:44.436Z,5.03
2019-03-11T12:05:52.510Z,4.77
2019-03-11T12:07:00.595Z,1.43
2019-03-11T12:08:08.701Z,1.17
2019-03-11T12:09:16.719Z,1.40
2019-03-11T12:10:30.278Z,1.20
2019-03-11T12:11:38.267Z,2.67
2019-03-11T12:12:46.523Z,5.33
2019-03-11T12:13:54.516Z,4.60
2019-03-11T12:15:02.554Z,1.03
2019-03-11T12:16:10.902Z,1.50
2019-03-11T12:17:19.091Z,1.17
2019-03-11T12:18:27.198Z,1.47
2019-03-11T12:19:35.113Z,2.77
2019-03-11T12:20:43.106Z,5.20
2019-03-11T12:21:51.358Z,6.40
2019-03-11T12:22:59.417Z,1.37
2019-03-11T12:24:07.474Z,1.30
2019-03-11T12:25:17.310Z,1.87
2019-03-11T12:26:25.632Z,1.10
2019-03-11T12:27:33.741Z,0.80
2019-03-11T12:28:41.699Z,3.63
2019-03-11T12:29:51.532Z,6.50
2019-03-11T12:30:59.850Z,2.23
2019-03-11T12:32:08.024Z,1.60
2019-03-11T12:33:16.061Z,2.00
2019-03-11T12:34:24.198Z,0.90
2019-03-11T12:35:32.710Z,2.80
2019-03-11T12:36:40.852Z,2.53
2019-03-11T12:37:48.789Z,7.67
2019-03-11T12:38:56.630Z,6.50
2019-03-11T12:40:06.263Z,1.70
2019-03-11T12:41:14.269Z,1.60
2019-03-11T12:42:22.637Z,1.40
2019-03-11T12:43:30.550Z,1.67
2019-03-11T12:44:38.433Z,1.17
2019-03-11T12:45:46.699Z,6.23
2019-03-11T12:46:55.161Z,5.87
2019-03-11T12:48:03.098Z,1.57
2019-03-11T12:49:11.064Z,1.37
2019-03-11T12:50:27.796Z,1.37
2019-03-11T12:51:35.875Z,1.37
2019-03-11T12:52:43.843Z,5.10
2019-03-11T12:53:52.084Z,6.47
2019-03-11T12:55:00.342Z,3.27
2019-03-11T12:56:08.463Z,1.27
2019-03-11T12:57:16.502Z,1.20
2019-03-11T12:58:24.846Z,2.90
2019-03-11T12:59:40.293Z,5.03
2019-03-11T13:00:42.785Z,4.03
2019-03-11T13:01:51.047Z,7.73
2019-03-11T13:02:59.487Z,5.60
2019-03-11T13:04:07.397Z,1.33
2019-03-11T13:05:16.370Z,1.83
2019-03-11T13:06:24.499Z,2.10
2019-03-11T13:07:32.755Z,1.43
2019-03-11T13:08:40.831Z,1.33
2019-03-11T13:09:49.330Z,7.50
2019-03-11T13:10:57.701Z,5.70
2019-03-11T13:12:06.003Z,1.10
2019-03-11T13:13:14.171Z,1.60
2019-03-11T13:14:22.407Z,1.77
2019-03-11T13:15:30.702Z,2.37
2019-03-11T13:16:39.111Z,2.80
2019-03-11T13:17:47.441Z,6.53
2019-03-11T13:18:55.670Z,7.90
2019-03-11T13:20:04.581Z,1.83
2019-03-11T13:21:23.060Z,3.03
2019-03-11T13:22:31.258Z,2.23
2019-03-11T13:23:41.411Z,2.33
2019-03-11T13:24:48.961Z,6.27
2019-03-11T13:25:57.050Z,7.10
2019-03-11T13:27:05.246Z,2.23
2019-03-11T13:28:13.370Z,1.63
2019-03-11T13:29:21.471Z,1.43
2019-03-11T13:30:30.075Z,1.63
2019-03-11T13:31:38.428Z,3.07
2019-03-11T13:32:46.417Z,4.27
2019-03-11T13:33:54.696Z,6.77
2019-03-11T13:35:02.789Z,4.23
2019-03-11T13:36:11.310Z,2.33
2019-03-11T13:37:19.423Z,2.33
2019-03-11T13:38:27.571Z,2.10
2019-03-11T13:39:35.591Z,1.60
2019-03-11T13:40:43.789Z,1.50
2019-03-11T13:41:53.074Z,7.00
2019-03-11T13:43:01.089Z,5.93
2019-03-11T13:44:09.514Z,1.60
2019-03-11T13:45:20.808Z,2.93
2019-03-11T13:46:28.743Z,2.23
2019-03-11T13:47:36.903Z,1.53
2019-03-11T13:48:45.045Z,2.27
2019-03-11T13:49:53.227Z,5.37
2019-03-11T13:51:01.881Z,5.03
2019-03-11T13:52:10.256Z,1.73
2019-03-11T13:53:18.266Z,1.90
2019-03-11T13:54:26.487Z,2.73
2019-03-11T13:55:34.778Z,1.77
2019-03-11T13:56:42.947Z,2.43
2019-03-11T13:57:50.993Z,6.07
2019-03-11T13:58:59.219Z,6.87
2019-03-11T14:00:15.446Z,2.73
2019-03-11T14:01:23.396Z,1.57
2019-03-11T14:02:31.912Z,2.17
2019-03-11T14:03:39.873Z,1.80
2019-03-11T14:04:47.954Z,5.60
2019-03-11T14:05:56.918Z,8.43
2019-03-11T14:07:05.127Z,5.13
2019-03-11T14:08:13.237Z,1.80
2019-03-11T14:09:21.344Z,2.73
2019-03-11T14:10:29.347Z,1.60
2019-03-11T14:11:37.184Z,1.50
2019-03-11T14:12:46.163Z,1.63
2019-03-11T14:13:54.012Z,5.77
2019-03-11T14:15:01.930Z,6.37
2019-03-11T14:16:09.978Z,2.00
2019-03-11T14:17:17.934Z,1.87
2019-03-11T14:18:26.050Z,2.77
2019-03-11T14:19:34.146Z,2.10
2019-03-11T14:20:42.368Z,1.70
2019-03-11T14:21:50.573Z,5.43
2019-03-11T14:22:59.036Z,6.43
2019-03-11T14:24:07.158Z,2.77
2019-03-11T14:25:16.049Z,2.30
2019-03-11T14:26:24.143Z,1.20
2019-03-11T14:27:32.855Z,2.90
2019-03-11T14:28:41.087Z,1.40
2019-03-11T14:29:49.087Z,3.90
2019-03-11T14:30:57.476Z,5.30
2019-03-11T14:32:05.675Z,3.60
2019-03-11T14:33:13.630Z,2.13
2019-03-11T14:34:21.946Z,1.83
2019-03-11T14:35:30.126Z,2.50
2019-03-11T14:36:38.303Z,3.27
2019-03-11T14:37:46.586Z,1.80
2019-03-11T14:38:54.561Z,6.03
2019-03-11T14:40:03.174Z,6.27
2019-03-11T14:41:11.670Z,2.43
2019-03-11T14:42:19.969Z,1.10
2019-03-11T14:43:28.528Z,2.23
2019-03-11T14:44:37.191Z,2.97
2019-03-11T14:45:45.316Z,1.80
2019-03-11T14:46:54.814Z,6.27
2019-03-11T14:48:03.025Z,5.93
2019-03-11T14:49:11.425Z,1.37
2019-03-11T14:50:20.088Z,1.63
2019-03-11T14:51:28.344Z,1.20
2019-03-11T14:52:36.269Z,2.40
2019-03-11T14:53:44.702Z,1.00
2019-03-11T14:54:52.688Z,4.40
2019-03-11T14:56:01.032Z,5.87
2019-03-11T14:57:08.948Z,2.50
2019-03-11T14:58:17.202Z,1.97
2019-03-11T14:59:25.541Z,3.23
2019-03-11T15:00:33.927Z,2.53
2019-03-11T15:01:42.246Z,2.17
2019-03-11T15:02:50.229Z,3.40
2019-03-11T15:03:58.571Z,7.33
2019-03-11T15:05:08.260Z,7.33
2019-03-11T15:06:16.368Z,1.37
2019-03-11T15:07:24.652Z,1.67
2019-03-11T15:08:32.866Z,3.13